Time;durP1;ratioP1;P1;durP2;ratioP2;P2;SDS_P1;SDS_P2;PMS_P1;PMS_P2;Temp;Humidity;BMP_temperature;BMP_pressure;BME280_temperature;BME280_humidity;BME280_pressure;Samples;Min_cycle;Max_cycle;Signal;HPM_P1;HPM_P2
2021/05/11 00:01:18;;;;;;;5.55;2.80;;;;;;;11.80;36.74;99710.60;1794777;78;21035;-56
2021/05/11 00:03:47;;;;;;;6.42;3.05;;;;;;;11.77;37.24;99717.02;1794750;80;21173;-55
2021/05/11 00:06:15;;;;;;;5.60;3.10;;;;;;;11.74;37.34;99715.67;1794847;80;21050;-58
2021/05/11 00:08:43;;;;;;;5.42;3.08;;;;;;;11.69;37.53;99715.59;1794735;79;21035;-54
2021/05/11 00:11:12;;;;;;;5.97;3.25;;;;;;;11.64;37.60;99712.05;1794805;79;21046;-59
2021/05/11 00:13:41;;;;;;;5.50;2.80;;;;;;;11.60;37.50;99704.20;1795001;78;21031;-55
2021/05/11 00:16:10;;;;;;;8.30;3.30;;;;;;;11.58;37.46;99697.73;1794826;80;21480;-55
2021/05/11 00:18:40;;;;;;;5.37;3.02;;;;;;;11.59;37.28;99691.70;1794695;78;21011;-57
2021/05/11 00:21:08;;;;;;;7.00;3.90;;;;;;;11.64;37.33;99696.53;1794681;80;21039;-58
2021/05/11 00:23:36;;;;;;;5.65;2.98;;;;;;;11.67;37.72;99686.67;1794738;79;21050;-57
2021/05/11 00:26:04;;;;;;;8.83;3.27;;;;;;;11.68;37.74;99684.55;1794879;78;21042;-56
2021/05/11 00:28:31;;;;;;;5.33;2.65;;;;;;;11.69;37.94;99681.11;1793425;80;21039;-55
2021/05/11 00:31:00;;;;;;;4.92;3.40;;;;;;;11.67;38.07;99682.79;1780827;79;21011;-58
2021/05/11 00:33:27;;;;;;;8.45;3.52;;;;;;;11.68;38.33;99684.55;1780835;79;21212;-57
2021/05/11 00:35:55;;;;;;;7.45;3.40;;;;;;;11.67;38.43;99682.79;1781056;80;21477;-56
2021/05/11 00:38:23;;;;;;;5.35;3.02;;;;;;;11.63;38.57;99681.02;1780847;79;21177;-57
2021/05/11 00:40:52;;;;;;;7.80;3.75;;;;;;;11.60;38.97;99675.37;1781035;80;21047;-58
2021/05/11 00:43:20;;;;;;;6.45;3.83;;;;;;;11.56;39.23;99681.73;1780851;80;21036;-57
2021/05/11 00:45:48;;;;;;;7.30;3.72;;;;;;;11.49;39.55;99677.72;1781105;80;21177;-56
2021/05/11 00:48:15;;;;;;;7.45;3.47;;;;;;;11.48;39.71;99670.83;1780904;79;21177;-57
2021/05/11 00:50:44;;;;;;;6.65;3.35;;;;;;;11.47;39.82;99669.49;1780816;80;21032;-58
2021/05/11 00:53:12;;;;;;;9.55;3.95;;;;;;;11.43;40.19;99669.88;1781103;79;21158;-59
2021/05/11 00:55:41;;;;;;;6.80;3.70;;;;;;;11.41;40.31;99667.67;1780861;80;21194;-55
2021/05/11 00:58:11;;;;;;;7.67;3.95;;;;;;;11.40;40.64;99665.95;1780922;80;21003;-58
2021/05/11 01:00:38;;;;;;;7.90;3.85;;;;;;;11.40;40.64;99663.36;1780783;80;21037;-58
2021/05/11 01:03:06;;;;;;;8.10;4.00;;;;;;;11.42;40.40;99671.13;1781026;80;21063;-56
2021/05/11 01:05:34;;;;;;;5.87;3.10;;;;;;;11.42;40.41;99668.14;1781126;80;21169;-57
2021/05/11 01:08:01;;;;;;;4.95;3.10;;;;;;;11.42;39.99;99665.56;1781085;79;21192;-58
2021/05/11 01:10:29;;;;;;;5.90;3.70;;;;;;;11.44;39.97;99667.72;1781149;80;21004;-57
2021/05/11 01:12:57;;;;;;;7.72;3.60;;;;;;;11.43;40.00;99666.00;1781129;80;21059;-59
2021/05/11 01:15:26;;;;;;;6.42;3.10;;;;;;;11.43;40.10;99660.83;1780985;79;21039;-55
2021/05/11 01:18:04;;;;;;;6.30;3.50;;;;;;;11.43;39.92;99667.28;1781123;80;21192;-59
2021/05/11 01:20:35;;;;;;;6.55;4.05;;;;;;;11.41;40.31;99665.09;1780141;80;21015;-55
2021/05/11 01:25:39;;;;;;;7.00;3.72;;;;;;;11.33;41.97;99656.75;1780996;80;21197;-57
2021/05/11 01:28:23;;;;;;;5.37;3.47;;;;;;;11.25;41.79;99650.15;1781154;80;21012;-58
2021/05/11 01:52:37;;;;;;;12.35;3.60;;;;;;;11.22;42.32;99643.61;1794514;80;21033;-56
2021/05/11 01:55:21;;;;;;;6.95;3.40;;;;;;;11.16;42.60;99646.09;1793309;79;21030;-57
2021/05/11 02:24:45;;;;;;;5.80;3.35;;;;;;;10.22;48.90;99647.91;1746352;82;21093;-57
2021/05/11 02:27:13;;;;;;;6.83;3.72;;;;;;;10.22;49.12;99649.20;1770262;79;21181;-55
2021/05/11 02:29:41;;;;;;;10.28;4.10;;;;;;;10.23;49.71;99644.52;1794656;80;21244;-57
2021/05/11 02:32:09;;;;;;;7.37;4.33;;;;;;;10.25;49.95;99647.98;1794632;79;21031;-56
2021/05/11 02:34:37;;;;;;;6.95;3.80;;;;;;;10.27;50.20;99649.31;1794602;80;21042;-57
2021/05/11 02:37:06;;;;;;;9.88;4.35;;;;;;;10.29;50.44;99648.55;1794854;78;21050;-60
2021/05/11 02:39:33;;;;;;;6.72;3.87;;;;;;;10.31;50.52;99647.30;1794738;78;21039;-56
2021/05/11 02:42:00;;;;;;;6.12;3.50;;;;;;;10.31;50.70;99645.59;1794922;80;21410;-58
2021/05/11 02:44:29;;;;;;;5.72;3.65;;;;;;;10.33;50.58;99655.53;1794884;80;21003;-57
2021/05/11 02:46:57;;;;;;;6.85;3.75;;;;;;;10.30;50.83;99650.70;1794884;80;21110;-57
2021/05/11 02:49:24;;;;;;;8.35;4.72;;;;;;;10.29;51.07;99654.13;1794890;78;21169;-58
2021/05/11 02:51:52;;;;;;;9.30;4.70;;;;;;;10.25;51.48;99650.98;1795000;78;21035;-57
2021/05/11 02:54:20;;;;;;;13.95;5.05;;;;;;;10.18;51.72;99656.44;1795074;78;21409;-57
2021/05/11 02:56:49;;;;;;;8.48;4.95;;;;;;;10.14;52.04;99654.61;1794607;78;21018;-58
2021/05/11 02:59:18;;;;;;;8.80;4.75;;;;;;;10.11;52.35;99652.83;1794651;78;21014;-57
2021/05/11 03:01:46;;;;;;;8.75;4.92;;;;;;;10.07;52.68;99654.00;1794870;78;21078;-57
2021/05/11 03:04:14;;;;;;;9.28;4.92;;;;;;;10.05;53.06;99653.98;1794943;78;21196;-56
2021/05/11 03:06:42;;;;;;;9.53;5.12;;;;;;;10.04;53.43;99647.06;1794874;79;21051;-57
2021/05/11 03:09:10;;;;;;;9.90;4.78;;;;;;;10.03;53.64;99645.33;1794834;80;21031;-56
2021/05/11 03:11:37;;;;;;;8.85;4.47;;;;;;;10.03;53.50;99640.17;1794866;78;21039;-57
2021/05/11 03:14:05;;;;;;;8.83;4.10;;;;;;;10.05;53.42;99637.22;1794869;78;21157;-55
2021/05/11 03:16:35;;;;;;;7.55;4.40;;;;;;;10.10;52.80;99635.63;1794793;80;21035;-55
2021/05/11 03:19:03;;;;;;;10.38;4.37;;;;;;;10.16;52.62;99637.47;1794779;79;21038;-57
2021/05/11 03:21:32;;;;;;;10.05;4.67;;;;;;;10.21;52.13;99643.18;1794849;80;21055;-58
2021/05/11 03:24:02;;;;;;;8.88;4.05;;;;;;;10.27;52.08;99647.60;1794225;79;21122;-56
2021/05/11 03:26:29;;;;;;;10.18;4.30;;;;;;;10.31;51.42;99642.14;1794716;78;21039;-58
2021/05/11 03:28:57;;;;;;;18.98;4.53;;;;;;;10.39;50.37;99644.48;1794608;80;21026;-59
2021/05/11 03:31:25;;;;;;;7.92;3.95;;;;;;;10.46;49.75;99648.05;1782045;80;21079;-59
2021/05/11 03:33:52;;;;;;;9.15;3.67;;;;;;;10.53;48.41;99643.09;1780976;80;21071;-57
2021/05/11 03:36:20;;;;;;;7.40;3.62;;;;;;;10.62;47.57;99642.40;1780782;79;21059;-58
2021/05/11 03:38:51;;;;;;;7.75;3.72;;;;;;;10.70;46.24;99641.27;1780988;80;21039;-56
2021/05/11 03:41:19;;;;;;;8.35;3.80;;;;;;;10.78;46.50;99638.00;1780744;80;21108;-57
2021/05/11 03:44:05;;;;;;;6.90;4.08;;;;;;;10.85;46.35;99636.43;1780870;80;21004;-56
2021/05/11 03:46:28;;;;;;;7.92;4.28;;;;;;;10.91;46.81;99633.09;1780921;79;21593;-56
2021/05/11 03:49:04;;;;;;;8.73;4.90;;;;;;;10.99;47.15;99628.55;1870643;76;22550;-57
2021/05/11 03:51:40;;;;;;;7.25;4.85;;;;;;;11.02;47.84;99624.73;1870630;76;22140;-58
2021/05/11 03:54:14;;;;;;;7.55;4.47;;;;;;;11.04;47.71;99630.81;1889969;76;22116;-57
2021/05/11 03:56:49;;;;;;;7.75;4.05;;;;;;;11.06;47.72;99623.07;1889937;76;22108;-59
2021/05/11 03:59:36;;;;;;;7.72;4.55;;;;;;;11.02;47.30;99626.03;1861423;77;21134;-57
2021/05/11 04:02:10;;;;;;;11.10;4.72;;;;;;;11.12;47.44;99628.77;1854847;76;27877;-58
2021/05/11 04:04:45;;;;;;;7.08;3.67;;;;;;;11.19;47.42;99629.34;1870792;76;22150;-58
2021/05/11 04:07:19;;;;;;;8.60;3.98;;;;;;;11.24;48.58;99627.72;1870653;76;22108;-56
2021/05/11 04:09:57;;;;;;;8.68;3.80;;;;;;;11.26;49.06;99633.80;1870641;76;22121;-59
2021/05/11 04:18:05;;;;;;;7.20;4.42;;;;;;;11.35;49.80;99640.44;1870655;76;22567;-59
2021/05/11 04:20:40;;;;;;;15.03;4.92;;;;;;;11.36;50.51;99641.30;1870646;76;22555;-60
2021/05/11 04:23:14;;;;;;;8.05;4.72;;;;;;;11.39;50.76;99637.05;1870669;76;22109;-58
2021/05/11 04:25:49;;;;;;;8.63;4.70;;;;;;;11.44;51.10;99639.30;1870727;76;22108;-60
2021/05/11 04:28:34;;;;;;;7.92;4.10;;;;;;;11.44;50.86;99643.17;1817930;78;21168;-59
2021/05/11 04:31:09;;;;;;;13.22;4.97;;;;;;;11.54;50.61;99642.06;1870687;76;22144;-59
2021/05/11 04:33:44;;;;;;;8.35;4.10;;;;;;;11.60;50.68;99640.86;1868156;76;22550;-56
2021/05/11 04:36:30;;;;;;;9.93;5.08;;;;;;;11.60;50.36;99644.73;1744661;81;21162;-58
2021/05/11 04:39:06;;;;;;;9.18;5.30;;;;;;;11.71;50.71;99635.05;1855187;76;22128;-58
2021/05/11 04:41:46;;;;;;;9.98;5.00;;;;;;;11.79;50.82;99630.00;1851710;76;22288;-59
2021/05/11 04:44:33;;;;;;;9.73;4.60;;;;;;;11.83;50.72;99635.69;1812788;78;21403;-59
2021/05/11 04:49:51;;;;;;;10.93;5.35;;;;;;;12.10;49.75;99629.23;1853225;76;22626;-58
2021/05/11 04:52:25;;;;;;;9.55;4.97;;;;;;;12.21;49.45;99638.45;1863502;76;22166;-60
2021/05/11 04:55:00;;;;;;;7.97;4.40;;;;;;;12.30;49.07;99639.89;1858706;76;22605;-58
2021/05/11 04:57:36;;;;;;;9.13;5.30;;;;;;;12.42;48.67;99636.63;1850480;76;22168;-59
2021/05/11 05:00:18;;;;;;;7.50;3.95;;;;;;;12.51;48.20;99632.42;1841682;76;22643;-61
2021/05/11 05:03:07;;;;;;;7.05;3.92;;;;;;;12.57;46.76;99625.19;1810844;78;21271;-59
2021/05/11 05:05:43;;;;;;;8.75;4.20;;;;;;;12.72;45.77;99625.39;1852677;76;22163;-59
2021/05/11 05:08:16;;;;;;;7.78;3.52;;;;;;;12.83;45.01;99628.53;1850455;76;22570;-61
2021/05/11 05:10:52;;;;;;;12.88;3.75;;;;;;;12.93;44.64;99632.55;1853283;76;22175;-58
2021/05/11 05:13:26;;;;;;;8.08;3.90;;;;;;;13.06;43.46;99633.99;1852122;76;22222;-58
2021/05/11 05:16:02;;;;;;;8.68;3.62;;;;;;;13.17;43.97;99630.66;1854198;76;22207;-59
2021/05/11 05:18:37;;;;;;;8.28;3.37;;;;;;;13.31;44.03;99632.58;1858304;76;22584;-58
2021/05/11 05:21:24;;;;;;;8.93;3.45;;;;;;;13.37;42.65;99631.34;1831753;77;21358;-60
2021/05/11 05:26:41;;;;;;;8.85;2.90;;;;;;;13.73;41.89;99633.41;1852826;76;22244;-58
2021/05/11 05:29:26;;;;;;;10.30;4.20;;;;;;;14.25;40.90;99629.08;1745014;80;21287;-61
2021/05/11 05:32:00;;;;;;;7.37;3.02;;;;;;;16.24;37.40;99626.21;1858445;76;22201;-59
2021/05/11 05:34:35;;;;;;;6.33;3.08;;;;;;;18.14;34.19;99628.30;1870593;76;22610;-61
2021/05/11 05:37:11;;;;;;;6.28;2.85;;;;;;;19.68;31.12;99619.06;1841735;76;22589;-58
2021/05/11 05:39:59;;;;;;;6.05;2.85;;;;;;;20.86;29.51;99623.95;1760277;80;21130;-60
2021/05/11 05:42:32;;;;;;;7.72;2.70;;;;;;;22.33;28.00;99631.09;1855712;76;22204;-59
2021/05/11 05:45:08;;;;;;;6.85;2.85;;;;;;;23.48;26.40;99625.63;1843506;76;22199;-60
2021/05/11 05:47:52;;;;;;;7.42;2.45;;;;;;;24.57;25.37;99624.67;1856268;76;22155;-60
2021/05/11 05:50:38;;;;;;;3.95;2.20;;;;;;;25.38;23.95;99632.70;1812822;78;21249;-61
2021/05/11 05:53:14;;;;;;;4.92;2.65;;;;;;;26.04;23.04;99634.03;1858126;76;22149;-61
2021/05/11 05:55:50;;;;;;;5.47;2.20;;;;;;;26.33;22.64;99633.24;1863495;76;22316;-61
2021/05/11 05:58:36;;;;;;;3.58;1.95;;;;;;;26.72;22.19;99631.16;1832052;77;21253;-61
2021/05/11 06:01:11;;;;;;;2.87;1.65;;;;;;;27.22;20.78;99623.57;1851735;76;22109;-62
2021/05/11 06:04:07;;;;;;;5.90;2.10;;;;;;;27.51;20.72;99635.05;1858166;76;22204;-61
2021/05/11 06:06:42;;;;;;;3.20;1.70;;;;;;;27.87;20.20;99629.28;1870623;76;22141;-62
2021/05/11 06:09:27;;;;;;;5.78;1.70;;;;;;;28.04;18.86;99631.58;1827491;78;21145;-60
2021/05/11 06:17:42;;;;;;;5.10;1.60;;;;;;;28.13;18.99;99627.11;1865678;76;22326;-60
2021/05/11 06:20:17;;;;;;;4.80;1.50;;;;;;;28.43;17.62;99621.17;1870309;76;22322;-60
2021/05/11 06:22:52;;;;;;;2.87;1.40;;;;;;;28.31;17.13;99622.66;1840307;76;27926;-59
2021/05/11 06:25:27;;;;;;;3.62;1.60;;;;;;;28.44;16.91;99626.86;1841929;76;22174;-59
2021/05/11 06:28:23;;;;;;;5.35;1.62;;;;;;;28.43;17.50;99623.83;1875964;75;22584;-60
2021/05/11 06:31:09;;;;;;;6.12;1.95;;;;;;;28.79;16.90;99631.67;1820005;77;21113;-60
2021/05/11 06:33:44;;;;;;;4.62;1.75;;;;;;;29.32;16.12;99632.39;1854420;76;34986;-59
2021/05/11 06:36:24;;;;;;;4.90;1.75;;;;;;;30.03;15.99;99633.23;1858197;76;22282;-60
2021/05/11 06:39:05;;;;;;;9.95;1.57;;;;;;;30.76;15.28;99636.41;1841127;76;22109;-60
2021/05/11 06:41:42;;;;;;;6.00;1.65;;;;;;;31.00;13.89;99646.08;1853481;76;22562;-59
2021/05/11 06:49:59;;;;;;;7.87;1.50;;;;;;;30.43;14.24;99646.39;1868480;76;22255;-59
2021/05/11 06:55:28;;;;;;;4.25;1.57;;;;;;;29.45;14.81;99633.41;1869689;76;22245;-60
2021/05/11 06:58:04;;;;;;;3.52;1.62;;;;;;;29.19;15.37;99637.05;1870519;76;22248;-61
2021/05/11 07:00:43;;;;;;;5.47;1.47;;;;;;;29.20;14.70;99629.45;1889698;76;22231;-59
2021/05/11 07:03:17;;;;;;;2.55;1.50;;;;;;;29.28;14.84;99632.16;1870536;76;22240;-59
2021/05/11 07:05:53;;;;;;;4.30;1.70;;;;;;;29.53;14.91;99629.83;1850772;76;22330;-60
2021/05/11 07:11:23;;;;;;;5.35;1.85;;;;;;;29.32;14.72;99627.06;1840913;76;22275;-60
2021/05/11 07:13:45;;;;;;;4.87;1.42;;;;;;;29.18;14.86;99630.03;1844501;76;22275;-59
2021/05/11 07:16:20;;;;;;;3.65;1.80;;;;;;;28.90;14.93;99629.77;1870543;76;22058;-58
2021/05/11 07:19:07;;;;;;;3.10;1.70;;;;;;;28.66;14.95;99636.78;1827355;78;21150;-60
2021/05/11 07:21:42;;;;;;;4.97;1.50;;;;;;;28.94;15.76;99636.64;1870280;76;22087;-62
2021/05/11 07:24:27;;;;;;;3.08;1.47;;;;;;;29.38;14.98;99633.36;1869671;76;22098;-60
2021/05/11 07:32:10;;;;;;;4.83;1.70;;;;;;;29.95;14.96;99633.67;1854527;76;22145;-60
2021/05/11 07:34:54;;;;;;;3.75;1.30;;;;;;;29.89;15.03;99638.48;1854855;76;22258;-60
2021/05/11 07:37:32;;;;;;;7.62;2.15;;;;;;;30.11;14.94;99640.77;1852651;76;22401;-60
2021/05/11 07:40:08;;;;;;;5.25;1.65;;;;;;;30.10;14.58;99643.02;1858001;76;22110;-59
2021/05/11 07:42:49;;;;;;;4.03;1.65;;;;;;;29.84;14.65;99629.44;1849437;76;22530;-60
2021/05/11 08:16:14;;;;;;;5.17;1.45;;;;;;;28.85;16.07;99568.05;1870418;76;22178;-61
2021/05/11 08:19:01;;;;;;;2.92;1.05;;;;;;;28.55;16.23;99566.13;1870600;76;22244;-60
2021/05/11 08:30:14;;;;;;;4.53;1.62;;;;;;;27.89;16.85;99571.71;1869531;76;22690;-62
2021/05/11 08:33:08;;;;;;;8.33;2.08;;;;;;;28.32;16.84;99562.02;1866370;75;20227;-62
2021/05/11 08:35:43;;;;;;;4.15;1.72;;;;;;;28.83;16.78;99563.31;1889811;76;22504;-61
2021/05/11 08:38:18;;;;;;;4.70;1.42;;;;;;;29.08;16.30;99563.70;1870502;76;22071;-60
2021/05/11 08:40:54;;;;;;;3.33;1.40;;;;;;;28.78;16.60;99551.60;1870541;76;22501;-62
2021/05/11 08:43:36;;;;;;;2.98;1.22;;;;;;;28.58;16.61;99551.83;1889849;76;20350;-60
2021/05/11 08:46:17;;;;;;;4.30;1.67;;;;;;;27.95;17.17;99553.77;1869676;76;22358;-61
2021/05/11 08:48:53;;;;;;;3.70;1.45;;;;;;;27.53;17.60;99549.63;1870562;76;22209;-61
2021/05/11 08:51:32;;;;;;;3.25;1.67;;;;;;;27.28;17.85;99541.58;1870405;76;22500;-60
2021/05/11 09:28:41;;;;;;;5.12;2.22;;;;;;;23.01;23.51;99497.63;1851739;76;22343;-62
2021/05/11 09:31:40;;;;;;;5.20;1.80;;;;;;;22.64;24.01;99501.34;1862365;76;22171;-62
2021/05/11 10:01:04;;;;;;;5.40;2.15;;;;;;;20.40;28.46;99460.97;1855592;76;22133;-62
2021/05/11 10:32:12;;;;;;;8.65;1.85;;;;;;;20.83;30.02;99432.52;1870623;76;22182;-62
2021/05/11 10:46:41;;;;;;;3.62;1.82;;;;;;;21.49;29.90;99418.25;1870738;76;22140;-63
2021/05/11 10:49:39;;;;;;;10.25;2.02;;;;;;;21.60;30.19;99418.39;1870405;76;22183;-62
2021/05/11 10:55:10;;;;;;;5.42;1.47;;;;;;;21.66;30.34;99400.28;1851976;76;22174;-62
2021/05/11 10:57:57;;;;;;;3.77;1.70;;;;;;;21.80;30.18;99394.17;1865870;76;22196;-61
2021/05/11 11:00:44;;;;;;;3.67;1.72;;;;;;;21.84;30.10;99397.14;1833811;78;21280;-62
2021/05/11 11:03:28;;;;;;;3.50;1.80;;;;;;;21.95;30.40;99388.09;1870556;76;22183;-61
2021/05/11 11:06:04;;;;;;;4.05;1.50;;;;;;;22.04;29.82;99386.52;1873215;76;22194;-61
2021/05/11 11:08:43;;;;;;;6.33;1.80;;;;;;;22.15;29.92;99386.20;1819392;77;27982;-60
2021/05/11 11:11:20;;;;;;;3.72;1.80;;;;;;;22.31;29.84;99385.74;1854734;76;27906;-61
2021/05/11 11:14:03;;;;;;;5.03;1.62;;;;;;;22.45;29.51;99380.51;1869592;76;22156;-60
2021/05/11 11:16:45;;;;;;;6.42;1.80;;;;;;;22.49;29.40;99386.06;1869601;76;22596;-60
2021/05/11 11:19:21;;;;;;;4.22;1.40;;;;;;;22.50;29.62;99381.23;1870492;76;22164;-59
2021/05/11 11:25:06;;;;;;;4.53;1.50;;;;;;;22.59;30.09;99374.34;1870581;76;22125;-61
2021/05/11 11:27:42;;;;;;;2.92;1.30;;;;;;;22.59;29.88;99380.06;1870305;76;22646;-61
2021/05/11 11:30:19;;;;;;;3.70;1.40;;;;;;;22.63;29.64;99379.92;1870421;76;22205;-61
2021/05/11 11:33:03;;;;;;;5.83;1.57;;;;;;;22.74;29.54;99372.57;1889672;76;22136;-61
2021/05/11 11:35:37;;;;;;;3.67;1.45;;;;;;;22.79;29.66;99356.61;1856097;76;22158;-62
2021/05/11 11:38:26;;;;;;;3.75;1.57;;;;;;;22.79;29.33;99358.38;1849095;76;22558;-61
2021/05/11 11:41:02;;;;;;;2.75;1.40;;;;;;;22.88;29.61;99359.41;1870585;76;22144;-66
2021/05/11 11:43:38;;;;;;;3.50;1.55;;;;;;;23.03;29.47;99361.56;1889824;76;22167;-62
2021/05/11 11:46:27;;;;;;;3.77;1.42;;;;;;;23.14;29.12;99355.47;1869959;76;22196;-61
2021/05/11 11:49:08;;;;;;;4.25;1.80;;;;;;;23.28;29.06;99355.44;1870434;76;22156;-62
2021/05/11 11:51:41;;;;;;;3.40;1.22;;;;;;;23.33;28.98;99352.19;1889767;76;22192;-61
2021/05/11 11:59:33;;;;;;;6.80;1.40;;;;;;;23.42;29.04;99348.39;1870413;76;22562;-62
2021/05/11 12:02:07;;;;;;;3.52;1.47;;;;;;;23.46;28.89;99336.38;1854685;76;28280;-61
2021/05/11 12:04:44;;;;;;;4.42;1.62;;;;;;;23.58;28.95;99338.58;1889881;76;22143;-61
2021/05/11 12:07:19;;;;;;;5.08;1.30;;;;;;;23.74;28.78;99333.62;1870466;76;22547;-61
2021/05/11 12:09:54;;;;;;;3.98;1.57;;;;;;;23.81;28.67;99339.52;1854751;76;28299;-61
2021/05/11 12:12:35;;;;;;;3.05;1.17;;;;;;;24.02;28.82;99337.41;1869645;76;22614;-63
2021/05/11 12:15:20;;;;;;;3.58;1.40;;;;;;;24.12;28.54;99333.08;1854679;76;28315;-62
2021/05/11 12:18:02;;;;;;;3.50;1.47;;;;;;;24.26;28.66;99338.69;1850708;77;22197;-62
2021/05/11 12:20:36;;;;;;;2.45;1.25;;;;;;;24.30;28.25;99332.39;1870589;76;22216;-62
2021/05/11 12:23:18;;;;;;;8.98;1.65;;;;;;;24.29;28.41;99336.39;1869735;76;22579;-61
2021/05/11 12:25:58;;;;;;;6.37;1.52;;;;;;;24.38;28.60;99330.30;1870423;76;22189;-62
2021/05/11 12:28:42;;;;;;;5.00;1.52;;;;;;;24.46;28.35;99328.23;1870084;76;22556;-63
2021/05/11 12:31:17;;;;;;;4.33;1.72;;;;;;;24.55;28.13;99323.07;1855610;76;22163;-63
2021/05/11 12:33:51;;;;;;;6.70;1.32;;;;;;;24.60;28.12;99322.86;1870561;76;22149;-62
2021/05/11 12:36:28;;;;;;;2.65;1.32;;;;;;;24.72;28.14;99321.04;1870552;76;22623;-62
2021/05/11 12:42:24;;;;;;;8.35;2.02;;;;;;;24.59;28.39;99316.73;1870587;76;22206;-62
2021/05/11 12:45:14;;;;;;;3.85;1.40;;;;;;;24.60;28.27;99304.39;1870586;76;22157;-61
2021/05/11 12:48:03;;;;;;;3.10;1.30;;;;;;;24.54;28.19;99305.97;1760367;81;21536;-61
2021/05/11 12:50:44;;;;;;;4.15;1.40;;;;;;;24.58;28.14;99308.89;1860218;76;22210;-61
2021/05/11 12:53:41;;;;;;;5.97;1.52;;;;;;;24.47;28.48;99306.23;1889889;76;22186;-60
2021/05/11 12:56:38;;;;;;;5.00;1.40;;;;;;;24.50;28.59;99299.08;1870388;76;22156;-62
2021/05/11 13:01:53;;;;;;;5.00;1.40;;;;;;;24.47;28.55;99293.03;1870336;76;22154;-61
2021/05/11 13:15:56;;;;;;;3.90;1.45;;;;;;;24.32;28.50;99281.72;1889889;76;22208;-62
2021/05/11 13:21:22;;;;;;;3.12;1.17;;;;;;;24.14;28.82;99282.46;1780327;80;21746;-61
2021/05/11 13:27:18;;;;;;;3.62;1.20;;;;;;;24.22;28.94;99263.23;1868329;75;22184;-63
2021/05/11 13:32:44;;;;;;;5.12;1.30;;;;;;;24.25;28.97;99264.45;1889858;76;22163;-63
2021/05/11 13:35:07;;;;;;;6.42;1.55;;;;;;;24.32;28.76;99255.81;1873864;76;27872;-62
2021/05/11 13:37:41;;;;;;;4.10;1.27;;;;;;;24.32;28.87;99254.49;1889950;76;22136;-63
2021/05/11 13:40:22;;;;;;;3.83;1.40;;;;;;;24.21;29.18;99249.66;1869695;76;22603;-62
2021/05/11 13:42:57;;;;;;;7.83;1.40;;;;;;;24.21;29.36;99249.66;1889912;76;22171;-63
2021/05/11 13:45:32;;;;;;;5.80;1.60;;;;;;;24.14;28.93;99245.55;1854671;76;27883;-62
2021/05/11 13:48:14;;;;;;;5.65;1.55;;;;;;;24.05;29.11;99236.23;1870570;76;22153;-62
2021/05/11 13:51:00;;;;;;;5.42;1.50;;;;;;;23.86;29.79;99233.92;1854792;76;27912;-62
2021/05/11 13:53:42;;;;;;;3.27;1.30;;;;;;;23.94;29.58;99242.38;1869748;76;22571;-61
2021/05/11 14:01:59;;;;;;;3.98;1.30;;;;;;;23.72;29.31;99234.44;1871502;76;22144;-62
2021/05/11 14:04:26;;;;;;;3.90;1.22;;;;;;;23.62;29.68;99229.50;1838003;76;22212;-61
2021/05/11 14:07:01;;;;;;;7.53;1.50;;;;;;;23.62;29.79;99231.28;1870704;76;22136;-62
2021/05/11 14:09:41;;;;;;;4.55;1.32;;;;;;;23.63;29.96;99226.41;1869678;76;22164;-60
2021/05/11 14:12:16;;;;;;;4.45;1.25;;;;;;;23.56;29.98;99231.06;1870640;76;22171;-64
2021/05/11 14:14:57;;;;;;;6.80;1.95;;;;;;;23.54;29.81;99223.67;1869731;76;22160;-62
2021/05/11 14:17:32;;;;;;;5.75;1.50;;;;;;;23.50;30.02;99221.20;1870557;76;22137;-61
2021/05/11 14:20:12;;;;;;;4.92;1.15;;;;;;;23.53;30.30;99216.66;1870543;76;22527;-62
2021/05/11 14:22:47;;;;;;;6.28;1.42;;;;;;;23.61;30.02;99221.67;1870427;76;22584;-63
2021/05/11 14:25:22;;;;;;;3.67;1.50;;;;;;;23.56;30.02;99219.21;1870551;76;22224;-63
2021/05/11 14:27:57;;;;;;;5.10;1.20;;;;;;;23.50;30.10;99218.57;1870579;76;22171;-61
2021/05/11 14:30:38;;;;;;;3.27;1.20;;;;;;;23.47;29.98;99218.70;1869609;76;22173;-60
2021/05/11 14:33:13;;;;;;;5.55;1.40;;;;;;;23.43;30.19;99212.66;1819184;77;27971;-62
2021/05/11 14:35:48;;;;;;;3.98;1.32;;;;;;;23.47;30.36;99218.70;1870450;76;22149;-61
2021/05/11 14:38:22;;;;;;;3.77;1.52;;;;;;;23.46;30.20;99215.64;1870478;76;22149;-62
2021/05/11 14:41:02;;;;;;;4.80;1.50;;;;;;;23.47;30.43;99212.96;1870487;76;22163;-60
2021/05/11 14:43:45;;;;;;;5.65;1.50;;;;;;;23.44;30.62;99211.77;1827725;77;21273;-61
2021/05/11 14:46:20;;;;;;;5.78;1.47;;;;;;;23.56;30.67;99209.98;1870485;76;22159;-61
2021/05/11 14:48:54;;;;;;;4.45;1.35;;;;;;;23.60;30.44;99208.94;1889825;76;22227;-62
2021/05/11 14:51:35;;;;;;;2.95;1.40;;;;;;;23.56;30.38;99206.03;1870184;76;22188;-65
2021/05/11 14:54:10;;;;;;;5.45;1.62;;;;;;;23.53;30.32;99202.17;1855876;76;22176;-62
2021/05/11 14:56:52;;;;;;;3.70;1.40;;;;;;;23.51;30.66;99204.47;1860085;76;22169;-61
2021/05/11 14:59:37;;;;;;;4.42;1.47;;;;;;;23.45;30.50;99202.08;1841154;77;21122;-61
2021/05/11 15:02:31;;;;;;;10.48;1.62;;;;;;;23.53;30.66;99200.01;1857904;75;22215;-60
2021/05/11 15:05:08;;;;;;;6.30;1.60;;;;;;;23.55;30.76;99200.34;1853042;76;22185;-62
2021/05/11 15:07:42;;;;;;;9.30;1.50;;;;;;;23.60;31.05;99198.86;1850835;76;22590;-62
2021/05/11 15:10:17;;;;;;;5.05;1.47;;;;;;;23.66;30.70;99188.53;1889832;76;22183;-61
2021/05/11 15:13:12;;;;;;;5.78;1.45;;;;;;;23.64;30.43;99194.35;1868752;75;22200;-61
2021/05/11 15:16:03;;;;;;;5.70;1.47;;;;;;;23.61;30.58;99192.23;1869682;76;22257;-61
2021/05/11 15:18:37;;;;;;;2.85;1.22;;;;;;;23.58;30.75;99187.08;1870402;76;22590;-61
2021/05/11 15:21:12;;;;;;;4.17;1.50;;;;;;;23.58;30.83;99195.42;1859403;76;22175;-60
2021/05/11 15:23:48;;;;;;;5.37;1.80;;;;;;;23.59;31.20;99188.79;1837123;76;28282;-61
2021/05/11 15:26:34;;;;;;;5.35;1.52;;;;;;;23.58;31.07;99192.78;1827241;78;21132;-60
2021/05/11 15:29:09;;;;;;;3.62;1.40;;;;;;;23.65;31.20;99180.25;1882926;75;22647;-61
2021/05/11 15:31:50;;;;;;;7.58;2.00;;;;;;;23.63;31.06;99188.20;1853087;76;23092;-61
2021/05/11 15:34:27;;;;;;;5.22;1.75;;;;;;;23.59;30.91;99184.84;1854623;76;28285;-61
2021/05/11 15:37:16;;;;;;;5.87;1.60;;;;;;;23.53;31.03;99181.09;1733946;81;21725;-62
2021/05/11 15:39:50;;;;;;;6.55;1.92;;;;;;;23.53;30.81;99179.78;1889869;76;22120;-62
2021/05/11 15:42:25;;;;;;;5.70;2.22;;;;;;;23.47;30.98;99195.84;1870475;76;22185;-63
2021/05/11 15:45:01;;;;;;;5.80;1.80;;;;;;;23.43;31.09;99190.73;1873816;76;28391;-60
2021/05/11 15:47:55;;;;;;;4.85;1.72;;;;;;;23.41;31.07;99196.09;1850749;77;22655;-61
2021/05/11 15:50:45;;;;;;;3.85;1.65;;;;;;;23.29;31.21;99191.27;1756291;81;21139;-61
2021/05/11 15:53:20;;;;;;;7.10;1.75;;;;;;;23.29;31.51;99188.64;1889919;76;22554;-61
2021/05/11 15:55:55;;;;;;;6.50;2.75;;;;;;;23.30;31.71;99185.92;1870684;76;22189;-60
2021/05/11 15:58:29;;;;;;;10.23;2.58;;;;;;;23.34;31.77;99178.79;1870617;76;22189;-61
2021/05/11 16:01:04;;;;;;;4.35;1.60;;;;;;;23.35;31.86;99173.91;1870150;76;22166;-60
2021/05/11 16:03:39;;;;;;;6.78;2.08;;;;;;;23.35;31.89;99175.23;1839395;76;28030;-61
2021/05/11 16:06:21;;;;;;;5.53;2.12;;;;;;;23.35;31.98;99177.86;1889070;76;22646;-60
2021/05/11 16:08:56;;;;;;;7.25;1.80;;;;;;;23.32;32.24;99175.34;1834314;77;22164;-61
2021/05/11 16:11:31;;;;;;;6.08;2.02;;;;;;;23.32;32.23;99176.66;1819060;77;28063;-61
2021/05/11 16:14:06;;;;;;;7.08;2.27;;;;;;;23.36;32.39;99175.64;1808556;77;22206;-61
2021/05/11 16:16:41;;;;;;;7.45;2.10;;;;;;;23.35;32.38;99175.23;1870677;76;22612;-61
2021/05/11 16:19:22;;;;;;;6.03;1.80;;;;;;;23.32;32.36;99174.03;1889921;76;22163;-62
2021/05/11 16:21:57;;;;;;;8.78;1.80;;;;;;;23.33;32.44;99174.42;1889973;76;22159;-61
2021/05/11 16:24:31;;;;;;;7.45;2.05;;;;;;;23.36;32.55;99170.37;1870730;76;22575;-61
2021/05/11 16:27:06;;;;;;;7.70;2.00;;;;;;;23.33;32.65;99168.72;1870806;76;22260;-62
2021/05/11 16:29:41;;;;;;;7.15;1.80;;;;;;;23.24;32.95;99165.11;1870886;76;22137;-61
2021/05/11 16:32:16;;;;;;;6.17;1.92;;;;;;;23.15;33.09;99166.75;1870700;76;22141;-62
2021/05/11 16:34:51;;;;;;;4.90;1.67;;;;;;;23.07;33.25;99168.35;1889967;76;22622;-61
2021/05/11 16:37:27;;;;;;;6.92;1.80;;;;;;;23.01;33.44;99170.37;1890042;76;20101;-61
2021/05/11 16:40:02;;;;;;;7.75;1.80;;;;;;;22.95;33.68;99170.11;1889935;76;22140;-61
2021/05/11 16:42:38;;;;;;;6.72;2.20;;;;;;;22.92;33.81;99160.98;1854765;76;38225;-60
2021/05/11 16:45:13;;;;;;;5.47;1.75;;;;;;;23.02;33.84;99155.81;1819643;77;38318;-61